METAR Data
IDs: Format: Raw Decoded Include TAF

Data at: 1349 UTC 07 Jul 2020

KGMU 071309Z 05007KT 10SM -RA OVC009 23/22 A3007 RMK AO2 CIG 007V012 P0000 T02280222
KGMU 071253Z 04008KT 9SM -RA OVC011 23/22 A3006 RMK AO2 SLP171 P0002 T02280222
KGMU 071239Z 04008KT 4SM -RA BR FEW007 OVC014 23/22 A3006 RMK AO2 P0002 T02280222
KGMU 071225Z 05006KT 2 1/2SM -RA BR FEW010 OVC014 23/22 A3006 RMK AO2 P0002 T02280217
KGMU 071204Z 05007KT 3SM -RA BR FEW008 BKN015 OVC028 23/22 A3006 RMK AO2 P0001 T02280217
KGMU 071153Z 06007KT 1 1/2SM -RA BR FEW009 BKN015 OVC030 23/22 A3006 RMK AO2 RAB37 SLP170 P0001 60001 70007 T02280217 10233 20228 53008
KGMU 071147Z 06006KT 1 3/4SM -RA BR FEW007 BKN015 OVC022 23/22 A3006 RMK AO2 RAB37 P0000
KGMU 071053Z 04008KT 10SM SCT006 SCT024 OVC029 23/22 A3005 RMK AO2 RAB03E23 SLP165 P0000 T02280217
KGMU 071045Z 05008KT 10SM SCT006 OVC027 23/22 A3005 RMK AO2 RAB03E23 P0000 T02280217
KGMU 071032Z 05007KT 9SM BKN005 BKN009 OVC029 23/22 A3005 RMK AO2 RAB03E23 CIG 004V008 P0000 T02280217
KGMU 071025Z AUTO 05007KT 5SM BR SCT007 OVC010 23/22 A3005 RMK AO2 RAB03E23 CIG 008V013 P0000 T02280217
KGMU 071007Z AUTO 06005KT 2 1/2SM -RA BR OVC009 23/22 A3005 RMK AO2 RAB03 CIG 005V011 P0000 T02280222
KGMU 070953Z AUTO 06008KT 4SM BR OVC010 23/22 A3005 RMK AO2 RAB48E52 CIG 006V013 SLP164 P0000 T02280217
KGMU 070927Z AUTO 05008KT 10SM OVC014 23/22 A3004 RMK AO2 T02330217
KGMU 070901Z AUTO 06006KT 10SM BKN017 OVC030 23/22 A3004 RMK AO2 T02280217
KGMU 070853Z AUTO 06007KT 10SM SCT019 OVC030 23/22 A3004 RMK AO2 SLP161 T02280217 58013
KGMU 070820Z AUTO 05007KT 10SM FEW006 SCT018 OVC028 23/22 A3004 RMK AO2 T02280217
KGMU 070753Z AUTO 05008KT 10SM FEW016 BKN029 OVC034 23/22 A3005 RMK AO2 SLP165 T02280217
KGMU 070745Z AUTO 06008KT 10SM FEW005 BKN028 OVC034 23/22 A3005 RMK AO2 T02280217
KGMU 070714Z AUTO 07006KT 10SM SCT021 BKN032 OVC045 23/22 A3006 RMK AO2 T02280217
KGMU 070653Z AUTO 05006KT 10SM OVC022 23/22 A3007 RMK AO2 SLP170 T02280217
KGMU 070619Z AUTO 05006KT 10SM BKN026 OVC031 23/22 A3007 RMK AO2 T02280217
KGMU 070553Z AUTO 04007KT 10SM SCT031 SCT085 BKN110 23/22 A3008 RMK AO2 SLP174 60001 T02280217 10239 20228 58003
KGMU 070453Z AUTO 04007KT 10SM CLR 23/22 A3008 RMK AO2 SLP174 T02330217 402940217
KGMU 070442Z AUTO 04007KT 10SM SCT013 23/22 A3008 RMK AO2 T02330217
KGMU 070404Z AUTO 04005KT 10SM BKN011 BKN015 23/22 A3008 RMK AO2 CIG 009V012 T02330217
KGMU 070353Z AUTO 06003KT 10SM SCT013 23/22 A3008 RMK AO2 SLP176 T02330217
KGMU 070305Z AUTO 00000KT 10SM SCT007 23/22 A3008 RMK AO2 T02330217
KGMU 070253Z AUTO 00000KT 10SM CLR 23/22 A3008 RMK AO2 SLP176 60001 T02330217 50002
KGMU 070153Z AUTO 00000KT 10SM SCT006 BKN033 BKN065 23/22 A3009 RMK AO2 RAB17E27 SLP178 P0001 T02280222
KGMU 070125Z 14006KT 7SM -RA FEW007 BKN045 OVC060 23/22 A3008 RMK AO2 RAB17 P0001 T02280217
KGMU 070053Z 13007KT 10SM SCT055 BKN070 23/21 A3008 RMK AO2 SLP176 T02330211
KGMU 062353Z 14006KT 10SM FEW011 BKN060 24/22 A3008 RMK AO2 SLP175 60000 T02390217 10283 20239 53005
KGMU 062253Z 16007KT 10SM SCT018 BKN110 25/22 A3007 RMK AO2 LTG DSNT S SLP173 T02500222
KGMU 062242Z 18013KT 10SM BKN018 BKN090 OVC110 26/23 A3007 RMK AO2 LTG DSNT S T02560228
KGMU 062153Z 09008KT 10SM BKN080 BKN120 27/22 A3006 RMK AO2 LTG DSNT SE AND S SLP169 T02720222
KGMU 062053Z 06010KT 10SM BKN060 OVC070 27/23 A3006 RMK AO2 LTG DSNT E-S RAE23 SLP170 P0000 60000 T02720233 56008
KGMU 061953Z 08007KT 10SM -RA FEW031 BKN055 BKN100 27/22 A3007 RMK AO2 RAB41 SLP173 P0000 T02670222
KGMU 061853Z 09010KT 10SM SCT080 BKN110 28/22 A3007 RMK AO2 LTG DSNT NE RAE12 SLP169 P0000 T02780222
KGMU 061803Z 08007KT 8SM -RA SCT028 BKN034 OVC065 25/24 A3008 RMK AO2 LTG DSNT NE AND E P0000 T02500239
KGMU 061753Z 14004KT 5SM VCTS -RA BR BKN026 BKN036 OVC060 24/23 A3009 RMK AO2 LTG DSNT NE AND E RAB10 SLP178 P0005 60005 T02440233 10294 20239 58002
KGMU 061730Z 20006KT 4SM VCTS -RA BR BKN026 BKN032 OVC039 24/23 A3009 RMK AO2 LTG DSNT E RAB10 P0002 T02390228
KGMU 061713Z 19009KT 7SM -RA BKN027 OVC034 26/22 A3010 RMK AO2 LTG DSNT E AND SE RAB10 P0000 T02560217
KGMU 061653Z 06007KT 10SM SCT029 BKN035 28/21 A3009 RMK AO2 LTG DSNT SE SLP178 T02830211
KGMU 061651Z 06008KT 10SM SCT027 SCT035 28/21 A3009 RMK AO2
KGMU 061624Z 04009KT 10SM VCTS FEW026 BKN037 BKN060 29/21 A3010 RMK AO2 T02890211
KGMU 061553Z 05011KT 10SM BKN039 OVC050 28/21 A3010 RMK AO2 LTG DSNT S RAB28E37 SLP181 P0000 T02830206
KGMU 061453Z 06008KT 10SM FEW023 SCT042 BKN050 28/20 A3010 RMK AO2 SLP181 T02780200 51008
KGMU 061421Z 10009KT 10SM FEW022 SCT028 SCT045 27/21 A3010 RMK AO2 T02720211
KGMU 061353Z 07007KT 10SM BKN020 27/21 A3010 RMK AO2 SLP181 T02720211
KGMU 061301Z 09007KT 10SM BKN020 26/22 A3009 RMK AO2 T02560217
KGMU 061253Z 08005KT 10SM CLR 26/22 A3009 RMK AO2 SLP178 T02610217
KGMU 061153Z 04005KT 10SM CLR 24/21 A3008 RMK AO2 SLP173 T02440211 10256 20217 51013
KGMU 061053Z 06004KT 10SM FEW009 22/20 A3007 RMK AO2 SLP169 T02220200
KGMU 061044Z 03003KT 9SM FEW009 22/20 A3007 RMK AO2 T02170200
KGMU 060953Z AUTO VRB03KT 10SM CLR 23/19 A3005 RMK AO2 SLP164 T02280194
KGMU 060853Z AUTO 01005KT 10SM SCT041 22/19 A3004 RMK AO2 SLP159 T02220194 55003
KGMU 060753Z AUTO 36005KT 10SM CLR 23/19 A3003 RMK AO2 SLP157 T02280194
KGMU 060653Z AUTO 11003KT 10SM CLR 25/19 A3004 RMK AO2 SLP158 T02500194
KGMU 060553Z AUTO 00000KT 10SM CLR 26/19 A3005 RMK AO2 SLP161 T02560189 10311 20256 50003
KGMU 060453Z AUTO 12003KT 10SM CLR 26/18 A3005 RMK AO2 SLP161 T02610183 403390233
KGMU 060353Z AUTO 12004KT 10SM CLR 27/18 A3004 RMK AO2 SLP161 T02720183
KGMU 060253Z AUTO 12004KT 10SM CLR 28/17 A3004 RMK AO2 SLP158 T02780167 51020
KGMU 060153Z AUTO 13005KT 10SM CLR 29/18 A3002 RMK AO2 SLP153 T02890183